createdAt,value
2016-11-29T00:00:37.748Z,0
2016-11-29T00:01:37.403Z,0
2016-11-29T00:02:37.390Z,0
2016-11-29T00:03:37.365Z,0
2016-11-29T00:04:37.665Z,0
2016-11-29T00:05:37.335Z,0
2016-11-29T00:06:37.314Z,0
2016-11-29T00:07:37.284Z,0
2016-11-29T00:08:37.268Z,0
2016-11-29T00:09:37.253Z,0
2016-11-29T00:10:37.224Z,0
2016-11-29T00:11:37.212Z,0
2016-11-29T00:12:37.202Z,0
2016-11-29T00:13:37.179Z,0
2016-11-29T00:14:37.161Z,0
2016-11-29T00:15:37.144Z,0
2016-11-29T00:16:37.124Z,0
2016-11-29T00:17:37.105Z,0
2016-11-29T00:18:37.077Z,0
2016-11-29T00:19:37.064Z,0
2016-11-29T00:20:37.036Z,0
2016-11-29T00:21:37.049Z,0
2016-11-29T00:22:37.000Z,0
2016-11-29T00:23:36.978Z,0
2016-11-29T00:24:36.962Z,0
2016-11-29T00:25:36.944Z,0
2016-11-29T00:26:36.931Z,0
2016-11-29T00:27:36.904Z,0
2016-11-29T00:28:36.881Z,0
2016-11-29T00:29:36.866Z,0
2016-11-29T00:30:36.880Z,0
2016-11-29T00:31:36.832Z,0
2016-11-29T00:32:36.806Z,0
2016-11-29T00:33:36.792Z,0
2016-11-29T00:34:36.768Z,0
2016-11-29T00:35:36.750Z,0
2016-11-29T00:36:36.735Z,0
2016-11-29T00:37:36.711Z,0
2016-11-29T00:38:36.695Z,0
2016-11-29T00:39:36.676Z,0
2016-11-29T00:40:36.655Z,0
2016-11-29T00:41:36.638Z,0
2016-11-29T00:42:36.619Z,0
2016-11-29T00:43:36.600Z,0
2016-11-29T00:44:36.580Z,0
2016-11-29T00:45:36.561Z,0
2016-11-29T00:46:36.544Z,0
2016-11-29T00:47:36.527Z,0
2016-11-29T00:48:36.501Z,0
2016-11-29T00:49:36.487Z,0
2016-11-29T00:50:36.464Z,0
2016-11-29T00:51:36.444Z,0
2016-11-29T00:52:36.427Z,0
2016-11-29T00:53:36.408Z,0
2016-11-29T00:54:36.387Z,0
2016-11-29T00:55:36.368Z,0
2016-11-29T00:56:36.352Z,0
2016-11-29T00:57:36.330Z,0
2016-11-29T00:58:36.313Z,0
2016-11-29T00:59:36.294Z,0
2016-11-29T01:00:36.274Z,0
2016-11-29T01:01:36.569Z,0
2016-11-29T01:02:36.238Z,0
2016-11-29T01:03:36.215Z,0
2016-11-29T01:04:36.199Z,0
2016-11-29T01:05:36.175Z,0
2016-11-29T01:06:36.488Z,0
2016-11-29T01:07:36.456Z,0
2016-11-29T01:08:36.120Z,0
2016-11-29T01:09:36.099Z,0
2016-11-29T01:10:36.082Z,0
2016-11-29T01:11:36.068Z,0
2016-11-29T01:12:36.042Z,0
2016-11-29T01:13:36.024Z,0
2016-11-29T01:14:36.005Z,0
2016-11-29T01:15:35.982Z,0
2016-11-29T01:16:35.962Z,0
2016-11-29T01:17:35.948Z,0
2016-11-29T01:18:35.934Z,0
2016-11-29T01:19:35.907Z,0
2016-11-29T01:20:35.890Z,0
2016-11-29T01:21:35.880Z,0
2016-11-29T01:22:36.164Z,0
2016-11-29T01:23:35.869Z,0
2016-11-29T01:24:35.811Z,0
2016-11-29T01:25:35.793Z,0
2016-11-29T01:26:35.773Z,0
2016-11-29T01:27:35.752Z,0
2016-11-29T01:28:35.762Z,0
2016-11-29T01:29:35.718Z,0
2016-11-29T01:30:35.698Z,0
2016-11-29T01:31:35.676Z,0
2016-11-29T01:32:35.663Z,0
2016-11-29T01:33:35.643Z,0
2016-11-29T01:34:35.646Z,0
2016-11-29T01:35:35.596Z,0
2016-11-29T01:36:35.583Z,0
2016-11-29T01:37:35.566Z,0
2016-11-29T01:38:35.542Z,0
2016-11-29T01:39:35.523Z,0
2016-11-29T01:40:35.502Z,0
2016-11-29T01:41:35.482Z,0
2016-11-29T01:42:35.459Z,0
2016-11-29T01:43:35.455Z,0
2016-11-29T01:44:35.427Z,0
2016-11-29T01:45:35.410Z,0
2016-11-29T01:46:35.711Z,0
2016-11-29T01:47:35.363Z,0
2016-11-29T01:48:35.345Z,0
2016-11-29T01:49:35.328Z,0
2016-11-29T01:50:35.310Z,0
2016-11-29T01:51:35.288Z,0
2016-11-29T01:52:35.271Z,0
2016-11-29T01:53:35.250Z,0
2016-11-29T01:54:35.231Z,0
2016-11-29T01:55:35.531Z,0
2016-11-29T01:56:35.206Z,0
2016-11-29T01:57:35.175Z,0
2016-11-29T01:58:35.152Z,0
2016-11-29T01:59:35.133Z,0
2016-11-29T02:00:35.112Z,0
2016-11-29T02:01:35.100Z,0
2016-11-29T02:02:35.072Z,0
2016-11-29T02:03:35.058Z,0
2016-11-29T02:04:35.033Z,0
2016-11-29T02:05:35.503Z,0
2016-11-29T02:06:34.992Z,0
2016-11-29T02:07:34.974Z,0
2016-11-29T02:08:34.954Z,0
2016-11-29T02:09:34.933Z,0
2016-11-29T02:10:34.914Z,0
2016-11-29T02:11:34.898Z,0
2016-11-29T02:12:34.880Z,0
2016-11-29T02:13:34.859Z,0
2016-11-29T02:14:34.834Z,0
2016-11-29T02:15:34.814Z,0
2016-11-29T02:16:34.799Z,0
2016-11-29T02:17:34.782Z,0
2016-11-29T02:18:34.755Z,0
2016-11-29T02:19:34.737Z,0
2016-11-29T02:20:34.719Z,0
2016-11-29T02:21:34.696Z,0
2016-11-29T02:22:34.679Z,0
2016-11-29T02:23:34.657Z,0
2016-11-29T02:24:34.635Z,0
2016-11-29T02:25:34.621Z,0
2016-11-29T02:26:34.597Z,0
2016-11-29T02:27:34.578Z,0
2016-11-29T02:28:34.557Z,0
2016-11-29T02:29:34.536Z,0
2016-11-29T02:30:34.522Z,0
2016-11-29T02:31:34.526Z,0
2016-11-29T02:32:34.477Z,0
2016-11-29T02:33:34.455Z,0
2016-11-29T02:34:34.438Z,0
2016-11-29T02:35:34.421Z,0
2016-11-29T02:36:34.395Z,0
2016-11-29T02:37:34.389Z,0
2016-11-29T02:38:34.354Z,0
2016-11-29T02:39:34.338Z,0
2016-11-29T02:40:34.321Z,0
2016-11-29T02:41:34.298Z,0
2016-11-29T02:42:34.277Z,0
2016-11-29T02:43:34.263Z,0
2016-11-29T02:44:34.237Z,0
2016-11-29T02:45:34.218Z,0
2016-11-29T02:46:34.200Z,0
2016-11-29T02:47:34.182Z,0
2016-11-29T02:48:34.156Z,0
2016-11-29T02:49:34.138Z,0
2016-11-29T02:50:34.131Z,0
2016-11-29T02:51:34.098Z,0
2016-11-29T02:52:34.076Z,0
2016-11-29T02:53:34.062Z,0
2016-11-29T02:54:34.037Z,0
2016-11-29T02:55:34.017Z,0
2016-11-29T02:56:33.996Z,0
2016-11-29T02:57:33.975Z,0
2016-11-29T02:58:33.954Z,0
2016-11-29T02:59:33.935Z,0
2016-11-29T03:00:33.918Z,0
2016-11-29T03:01:33.922Z,0
2016-11-29T03:02:33.868Z,0
2016-11-29T03:03:33.854Z,0
2016-11-29T03:04:34.169Z,0
2016-11-29T03:05:33.818Z,0
2016-11-29T03:06:33.795Z,0
2016-11-29T03:07:33.780Z,0
2016-11-29T03:08:33.757Z,0
2016-11-29T03:09:33.732Z,0
2016-11-29T03:10:33.716Z,0
2016-11-29T03:11:33.695Z,0
2016-11-29T03:12:33.676Z,0
2016-11-29T03:13:33.660Z,0
2016-11-29T03:14:33.634Z,0
2016-11-29T03:15:33.619Z,0
2016-11-29T03:16:33.594Z,0
2016-11-29T03:17:33.571Z,0
2016-11-29T03:18:33.560Z,0
2016-11-29T03:19:33.530Z,0
2016-11-29T03:20:33.514Z,0
2016-11-29T03:21:33.489Z,0
2016-11-29T03:22:33.496Z,0
2016-11-29T03:23:33.451Z,0
2016-11-29T03:24:33.433Z,0
2016-11-29T03:25:33.418Z,0
2016-11-29T03:26:33.400Z,0
2016-11-29T03:27:33.379Z,0
2016-11-29T03:28:33.351Z,0
2016-11-29T03:29:33.335Z,0
2016-11-29T03:30:33.311Z,0
2016-11-29T03:31:33.303Z,0
2016-11-29T03:32:33.277Z,0
2016-11-29T03:33:33.250Z,0
2016-11-29T03:34:33.230Z,0
2016-11-29T03:35:33.208Z,0
2016-11-29T03:36:33.195Z,0
2016-11-29T03:37:33.174Z,0
2016-11-29T03:38:33.156Z,0
2016-11-29T03:39:33.134Z,0
2016-11-29T03:40:33.143Z,0
2016-11-29T03:41:33.094Z,0
2016-11-29T03:42:33.072Z,0
2016-11-29T03:43:33.049Z,0
2016-11-29T03:44:33.026Z,0
2016-11-29T03:45:33.008Z,0
2016-11-29T03:46:33.308Z,0
2016-11-29T03:47:32.972Z,0
2016-11-29T03:48:32.949Z,0
2016-11-29T03:49:32.930Z,0
2016-11-29T03:50:32.904Z,0
2016-11-29T03:51:32.893Z,0
2016-11-29T03:52:33.185Z,0
2016-11-29T03:53:32.845Z,0
2016-11-29T03:54:32.826Z,0
2016-11-29T03:55:32.826Z,0
2016-11-29T03:56:32.787Z,0
2016-11-29T03:57:32.768Z,0
2016-11-29T03:58:32.748Z,0
2016-11-29T03:59:32.723Z,0
2016-11-29T04:00:32.767Z,0
2016-11-29T04:01:32.684Z,0
2016-11-29T04:02:32.669Z,0
2016-11-29T04:03:32.652Z,0
2016-11-29T04:04:32.624Z,0
2016-11-29T04:05:32.604Z,0
2016-11-29T04:06:32.596Z,0
2016-11-29T04:07:32.561Z,0
2016-11-29T04:08:32.859Z,0
2016-11-29T04:09:32.525Z,0
2016-11-29T04:10:32.505Z,0
2016-11-29T04:11:32.485Z,0
2016-11-29T04:12:32.465Z,0
2016-11-29T04:13:32.442Z,0
2016-11-29T04:14:32.421Z,0
2016-11-29T04:15:32.404Z,0
2016-11-29T04:16:32.381Z,0
2016-11-29T04:17:32.367Z,0
2016-11-29T04:18:32.352Z,0
2016-11-29T04:19:32.324Z,0
2016-11-29T04:20:32.303Z,0
2016-11-29T04:21:32.282Z,0
2016-11-29T04:22:32.262Z,0
2016-11-29T04:23:32.248Z,0
2016-11-29T04:24:32.222Z,0
2016-11-29T04:25:32.202Z,0
2016-11-29T04:26:32.190Z,0
2016-11-29T04:27:32.160Z,0
2016-11-29T04:28:32.139Z,0
2016-11-29T04:29:32.118Z,0
2016-11-29T04:30:32.101Z,0
2016-11-29T04:31:32.079Z,0
2016-11-29T04:32:32.055Z,0
2016-11-29T04:33:32.039Z,0
2016-11-29T04:34:32.018Z,0
2016-11-29T04:35:31.997Z,0
2016-11-29T04:36:31.978Z,0
2016-11-29T04:37:31.957Z,0
2016-11-29T04:38:31.934Z,0
2016-11-29T04:39:31.919Z,0
2016-11-29T04:40:31.897Z,0
2016-11-29T04:41:31.910Z,0
2016-11-29T04:42:31.856Z,0
2016-11-29T04:43:31.835Z,0
2016-11-29T04:44:31.815Z,0
2016-11-29T04:45:31.795Z,0
2016-11-29T04:46:31.775Z,0
2016-11-29T04:47:31.754Z,0
2016-11-29T04:48:31.732Z,0
2016-11-29T04:49:31.711Z,0
2016-11-29T04:50:31.697Z,0
2016-11-29T04:51:31.669Z,0
2016-11-29T04:52:31.653Z,0
2016-11-29T04:53:31.628Z,0
2016-11-29T04:54:31.615Z,0
2016-11-29T04:55:31.590Z,0
2016-11-29T04:56:31.571Z,0
2016-11-29T04:57:31.553Z,0
2016-11-29T04:58:31.532Z,0
2016-11-29T04:59:31.513Z,0
2016-11-29T05:00:31.494Z,0
2016-11-29T05:01:31.495Z,0
2016-11-29T05:02:31.450Z,0
2016-11-29T05:03:31.743Z,0
2016-11-29T05:04:31.409Z,0
2016-11-29T05:05:31.707Z,0
2016-11-29T05:06:31.683Z,0
2016-11-29T05:07:31.347Z,0
2016-11-29T05:08:31.332Z,0
2016-11-29T05:09:31.308Z,0
2016-11-29T05:10:31.290Z,0
2016-11-29T05:11:31.268Z,0
2016-11-29T05:12:31.285Z,0
2016-11-29T05:13:31.226Z,0
2016-11-29T05:14:31.208Z,0
2016-11-29T05:15:31.185Z,0
2016-11-29T05:16:31.165Z,0
2016-11-29T05:17:31.145Z,0
2016-11-29T05:18:31.126Z,0
2016-11-29T05:19:31.416Z,0
2016-11-29T05:20:31.089Z,0
2016-11-29T05:21:31.071Z,0
2016-11-29T05:22:31.047Z,0
2016-11-29T05:23:31.023Z,0
2016-11-29T05:24:31.003Z,0
2016-11-29T05:25:30.994Z,0
2016-11-29T05:26:31.285Z,0
2016-11-29T05:27:30.945Z,0
2016-11-29T05:28:30.923Z,0
2016-11-29T05:29:30.905Z,0
2016-11-29T05:30:30.892Z,0
2016-11-29T05:31:30.860Z,0
2016-11-29T05:32:30.847Z,0
2016-11-29T05:33:30.825Z,0
2016-11-29T05:34:30.801Z,0
2016-11-29T05:35:30.780Z,0
2016-11-29T05:36:30.770Z,0
2016-11-29T05:37:30.773Z,0
2016-11-29T05:38:30.720Z,0
2016-11-29T05:39:30.707Z,0
2016-11-29T05:40:30.680Z,0
2016-11-29T05:41:30.661Z,0
2016-11-29T05:42:30.957Z,0
2016-11-29T05:43:30.626Z,0
2016-11-29T05:44:30.601Z,0
2016-11-29T05:45:30.580Z,0
2016-11-29T05:46:30.870Z,0
2016-11-29T05:47:30.544Z,0
2016-11-29T05:48:30.532Z,0
2016-11-29T05:49:30.545Z,0
2016-11-29T05:50:30.482Z,0
2016-11-29T05:51:30.454Z,0
2016-11-29T05:52:30.438Z,0
2016-11-29T05:53:30.727Z,0
2016-11-29T05:54:30.396Z,0
2016-11-29T05:55:30.413Z,0
2016-11-29T05:56:30.357Z,0
2016-11-29T05:57:30.334Z,0
2016-11-29T05:58:30.316Z,0
2016-11-29T05:59:30.293Z,0
2016-11-29T06:00:30.277Z,0
2016-11-29T06:01:30.256Z,0
2016-11-29T06:02:30.234Z,0
2016-11-29T06:03:30.214Z,0
2016-11-29T06:04:30.189Z,0
2016-11-29T06:05:30.173Z,0
2016-11-29T06:06:30.150Z,0
2016-11-29T06:07:30.137Z,0
2016-11-29T06:08:30.114Z,0
2016-11-29T06:09:30.090Z,0
2016-11-29T06:10:30.069Z,0
2016-11-29T06:11:30.052Z,0
2016-11-29T06:12:30.048Z,4
2016-11-29T06:13:30.012Z,0
2016-11-29T06:14:29.998Z,0
2016-11-29T06:15:29.982Z,4
2016-11-29T06:16:29.947Z,0
2016-11-29T06:17:29.928Z,4
2016-11-29T06:18:29.912Z,4
2016-11-29T06:19:29.886Z,8
2016-11-29T06:20:29.872Z,8
2016-11-29T06:21:29.847Z,8
2016-11-29T06:22:29.826Z,8
2016-11-29T06:23:29.802Z,12
2016-11-29T06:24:29.791Z,12
2016-11-29T06:25:29.767Z,12
2016-11-29T06:26:29.753Z,20
2016-11-29T06:27:29.721Z,20
2016-11-29T06:28:29.711Z,24
2016-11-29T06:29:29.683Z,24
2016-11-29T06:30:29.676Z,32
2016-11-29T06:31:29.959Z,32
2016-11-29T06:32:29.631Z,40
2016-11-29T06:33:29.629Z,44
2016-11-29T06:34:29.584Z,52
2016-11-29T06:35:29.565Z,60
2016-11-29T06:36:29.543Z,68
2016-11-29T06:37:29.525Z,76
2016-11-29T06:38:29.502Z,84
2016-11-29T06:39:29.491Z,96
2016-11-29T06:40:29.465Z,108
2016-11-29T06:41:29.441Z,116
2016-11-29T06:42:29.430Z,132
2016-11-29T06:43:29.403Z,144
2016-11-29T06:44:29.380Z,156
2016-11-29T06:45:29.359Z,176
2016-11-29T06:46:29.343Z,188
2016-11-29T06:47:29.318Z,204
2016-11-29T06:48:29.299Z,224
2016-11-29T06:49:29.281Z,240
2016-11-29T06:50:29.259Z,260
2016-11-29T06:51:29.236Z,276
2016-11-29T06:52:29.214Z,296
2016-11-29T06:53:29.507Z,316
2016-11-29T06:54:29.176Z,336
2016-11-29T06:55:29.158Z,356
2016-11-29T06:56:29.138Z,380
2016-11-29T06:57:29.116Z,400
2016-11-29T06:58:29.096Z,420
2016-11-29T06:59:29.072Z,444
2016-11-29T07:00:29.054Z,464
2016-11-29T07:01:29.071Z,488
2016-11-29T07:02:29.010Z,508
2016-11-29T07:03:28.994Z,532
2016-11-29T07:04:28.976Z,552
2016-11-29T07:05:29.272Z,576
2016-11-29T07:06:28.927Z,600
2016-11-29T07:07:28.908Z,620
2016-11-29T07:08:28.892Z,644
2016-11-29T07:09:28.874Z,664
2016-11-29T07:10:28.847Z,684
2016-11-29T07:11:28.836Z,708
2016-11-29T07:12:28.808Z,724
2016-11-29T07:13:28.787Z,748
2016-11-29T07:14:28.766Z,768
2016-11-29T07:15:28.748Z,788
2016-11-29T07:16:28.753Z,808
2016-11-29T07:17:28.713Z,828
2016-11-29T07:18:28.686Z,848
2016-11-29T07:19:28.668Z,864
2016-11-29T07:20:28.646Z,884
2016-11-29T07:21:28.626Z,904
2016-11-29T07:22:28.614Z,920
2016-11-29T07:23:28.588Z,940
2016-11-29T07:24:28.563Z,956
2016-11-29T07:25:28.542Z,976
2016-11-29T07:26:28.559Z,992
2016-11-29T07:27:28.502Z,1004
2016-11-29T07:28:28.515Z,1020
2016-11-29T07:29:28.461Z,1036
2016-11-29T07:30:28.443Z,1052
2016-11-29T07:31:28.422Z,1068
2016-11-29T07:32:28.404Z,1080
2016-11-29T07:33:28.379Z,1092
2016-11-29T07:34:28.360Z,1108
2016-11-29T07:35:28.341Z,1124
2016-11-29T07:36:28.325Z,1140
2016-11-29T07:37:28.301Z,1152
2016-11-29T07:38:28.277Z,1168
2016-11-29T07:39:28.255Z,1180
2016-11-29T07:40:28.239Z,1192
2016-11-29T07:41:28.215Z,1204
2016-11-29T07:42:28.198Z,1220
2016-11-29T07:43:28.176Z,1232
2016-11-29T07:44:28.157Z,1244
2016-11-29T07:45:28.134Z,1256
2016-11-29T07:46:28.117Z,1268
2016-11-29T07:47:28.098Z,1280
2016-11-29T07:48:28.081Z,1292
2016-11-29T07:49:28.051Z,1304
2016-11-29T07:50:28.052Z,1316
2016-11-29T07:51:28.022Z,1332
2016-11-29T07:52:27.998Z,1340
2016-11-29T07:53:27.978Z,1348
2016-11-29T07:54:27.973Z,1360
2016-11-29T07:55:27.933Z,1368
2016-11-29T07:56:27.914Z,1380
2016-11-29T07:57:27.903Z,1388
2016-11-29T07:58:27.903Z,1396
2016-11-29T07:59:27.853Z,1404
2016-11-29T08:00:27.832Z,1412
2016-11-29T08:01:27.816Z,1416
2016-11-29T08:02:27.790Z,1424
2016-11-29T08:03:27.770Z,1432
2016-11-29T08:04:27.755Z,1440
2016-11-29T08:05:27.733Z,1448
2016-11-29T08:06:27.708Z,1456
2016-11-29T08:07:27.687Z,1468
2016-11-29T08:08:27.666Z,1476
2016-11-29T08:09:27.656Z,1484
2016-11-29T08:10:27.627Z,1488
2016-11-29T08:11:27.611Z,1496
2016-11-29T08:12:27.588Z,1500
2016-11-29T08:13:27.568Z,1512
2016-11-29T08:14:27.547Z,1516
2016-11-29T08:15:27.527Z,1520
2016-11-29T08:16:27.514Z,1524
2016-11-29T08:17:27.484Z,1532
2016-11-29T08:18:27.466Z,1536
2016-11-29T08:19:27.445Z,1544
2016-11-29T08:20:27.746Z,1548
2016-11-29T08:21:27.408Z,1552
2016-11-29T08:22:27.385Z,1560
2016-11-29T08:23:27.366Z,1564
2016-11-29T08:24:27.345Z,1568
2016-11-29T08:25:27.330Z,1568
2016-11-29T08:26:27.310Z,1576
2016-11-29T08:27:27.297Z,1580
2016-11-29T08:28:27.272Z,1584
2016-11-29T08:29:27.244Z,1592
2016-11-29T08:30:27.227Z,1596
2016-11-29T08:31:27.210Z,1600
2016-11-29T08:32:27.188Z,1604
2016-11-29T08:33:27.166Z,1612
2016-11-29T08:34:27.200Z,1616
2016-11-29T08:35:27.128Z,1624
2016-11-29T08:36:27.111Z,1628
2016-11-29T08:37:27.094Z,1632
2016-11-29T08:38:27.080Z,1636
2016-11-29T08:39:27.046Z,1640
2016-11-29T08:40:27.030Z,1648
2016-11-29T08:41:27.011Z,1652
2016-11-29T08:42:27.314Z,1656
2016-11-29T08:43:26.971Z,1664
2016-11-29T08:44:26.955Z,1668
2016-11-29T08:45:26.928Z,1672
2016-11-29T08:46:26.907Z,1672
2016-11-29T08:47:26.893Z,1676
2016-11-29T08:48:26.869Z,1684
2016-11-29T08:49:26.854Z,1688
2016-11-29T08:50:26.828Z,1692
2016-11-29T08:51:26.808Z,1696
2016-11-29T08:52:26.791Z,1700
2016-11-29T08:53:26.770Z,1704
2016-11-29T08:54:26.752Z,1708
2016-11-29T08:55:26.733Z,1712
2016-11-29T08:56:26.712Z,1712
2016-11-29T08:57:26.695Z,1716
2016-11-29T08:58:26.705Z,1720
2016-11-29T08:59:26.656Z,1724
2016-11-29T09:00:26.633Z,1732
2016-11-29T09:01:26.616Z,1732
2016-11-29T09:02:26.612Z,1732
2016-11-29T09:03:26.577Z,1740
2016-11-29T09:04:26.556Z,1744
2016-11-29T09:05:26.544Z,1752
2016-11-29T09:06:26.516Z,1756
2016-11-29T09:07:26.496Z,1752
2016-11-29T09:08:26.477Z,1752
2016-11-29T09:09:26.500Z,1756
2016-11-29T09:10:26.487Z,1752
2016-11-29T09:11:26.463Z,1756
2016-11-29T09:12:26.444Z,1756
2016-11-29T09:13:26.422Z,1760
2016-11-29T09:14:26.408Z,1760
2016-11-29T09:15:26.389Z,1764
2016-11-29T09:16:26.368Z,1760
2016-11-29T09:17:26.350Z,1760
2016-11-29T09:18:26.329Z,1760
2016-11-29T09:19:26.305Z,1760
2016-11-29T09:20:26.612Z,1764
2016-11-29T09:21:26.272Z,1764
2016-11-29T09:22:26.253Z,1764
2016-11-29T09:23:26.229Z,1768
2016-11-29T09:24:26.211Z,1768
2016-11-29T09:25:26.194Z,1768
2016-11-29T09:26:26.176Z,1768
2016-11-29T09:27:26.163Z,1772
2016-11-29T09:28:26.134Z,1772
2016-11-29T09:29:26.113Z,1776
2016-11-29T09:30:26.096Z,1776
2016-11-29T09:31:26.083Z,1776
2016-11-29T09:32:26.056Z,1776
2016-11-29T09:33:26.046Z,1772
2016-11-29T09:34:26.018Z,1772
2016-11-29T09:35:26.001Z,1772
2016-11-29T09:36:25.979Z,1772
2016-11-29T09:37:25.963Z,1772
2016-11-29T09:38:25.947Z,1776
2016-11-29T09:39:25.930Z,1776
2016-11-29T09:40:25.906Z,1772
2016-11-29T09:41:25.893Z,1780
2016-11-29T09:42:25.873Z,1776
2016-11-29T09:43:25.859Z,1776
2016-11-29T09:44:25.840Z,1772
2016-11-29T09:45:25.815Z,1772
2016-11-29T09:46:25.800Z,1776
2016-11-29T09:47:25.781Z,1776
2016-11-29T09:48:25.761Z,1776
2016-11-29T09:49:25.734Z,1780
2016-11-29T09:50:25.765Z,1776
2016-11-29T09:51:25.757Z,1776
2016-11-29T09:52:25.691Z,1780
2016-11-29T09:53:25.674Z,1784
2016-11-29T09:54:25.644Z,1784
2016-11-29T09:55:25.625Z,1784
2016-11-29T09:56:25.611Z,1784
2016-11-29T09:57:25.588Z,1792
2016-11-29T09:58:25.567Z,1788
2016-11-29T09:59:25.548Z,1796
2016-11-29T10:00:25.561Z,1800
2016-11-29T10:01:25.511Z,1804
2016-11-29T10:02:25.495Z,1808
2016-11-29T10:03:25.475Z,1804
2016-11-29T10:04:25.480Z,1808
2016-11-29T10:05:25.441Z,1808
2016-11-29T10:06:25.420Z,1816
2016-11-29T10:07:25.402Z,1812
2016-11-29T10:08:25.382Z,1812
2016-11-29T10:09:25.363Z,1820
2016-11-29T10:10:25.345Z,1832
2016-11-29T10:11:25.328Z,1836
2016-11-29T10:12:25.309Z,1840
2016-11-29T10:13:25.286Z,1848
2016-11-29T10:14:25.300Z,1860
2016-11-29T10:15:25.249Z,1868
2016-11-29T10:16:25.233Z,1876
2016-11-29T10:17:25.212Z,1880
2016-11-29T10:18:25.201Z,1876
2016-11-29T10:19:25.182Z,1876
2016-11-29T10:20:25.157Z,1888
2016-11-29T10:21:25.140Z,1888
2016-11-29T10:22:25.120Z,1896
2016-11-29T10:23:25.104Z,1884
2016-11-29T10:24:25.085Z,1872
2016-11-29T10:25:25.069Z,1876
2016-11-29T10:26:25.053Z,1876
2016-11-29T10:27:25.040Z,1872
2016-11-29T10:28:25.015Z,1864
2016-11-29T10:29:25.052Z,1856
2016-11-29T10:30:24.974Z,1860
2016-11-29T10:31:24.958Z,1860
2016-11-29T10:32:24.938Z,1860
2016-11-29T10:33:24.926Z,1860
2016-11-29T10:34:24.905Z,1860
2016-11-29T10:35:24.890Z,1864
2016-11-29T10:36:24.867Z,1864
2016-11-29T10:37:24.852Z,1868
2016-11-29T10:38:24.866Z,1864
2016-11-29T10:39:24.810Z,1860
2016-11-29T10:40:24.809Z,1856
2016-11-29T10:41:24.778Z,1860
2016-11-29T10:42:24.758Z,1864
2016-11-29T10:43:24.740Z,1856
2016-11-29T10:44:24.726Z,1856
2016-11-29T10:45:24.706Z,1856
2016-11-29T10:46:24.686Z,1856
2016-11-29T10:47:24.675Z,1856
2016-11-29T10:48:24.656Z,1852
2016-11-29T10:49:24.634Z,1848
2016-11-29T10:50:24.621Z,1848
2016-11-29T10:51:24.599Z,1848
2016-11-29T10:52:24.903Z,1852
2016-11-29T10:53:24.564Z,1852
2016-11-29T10:54:24.544Z,1852
2016-11-29T10:55:24.527Z,1848
2016-11-29T10:56:24.512Z,1852
2016-11-29T10:57:24.491Z,1856
2016-11-29T10:58:24.478Z,1856
2016-11-29T10:59:24.454Z,1860
2016-11-29T11:00:24.538Z,1860
2016-11-29T11:01:24.422Z,1860
2016-11-29T11:02:24.405Z,1856
2016-11-29T11:03:24.383Z,1860
2016-11-29T11:04:24.371Z,1864
2016-11-29T11:05:24.346Z,1868
2016-11-29T11:06:24.343Z,1868
2016-11-29T11:07:24.318Z,1864
2016-11-29T11:08:24.612Z,1864
2016-11-29T11:09:24.278Z,1868
2016-11-29T11:10:24.264Z,1868
2016-11-29T11:11:24.240Z,1864
2016-11-29T11:12:24.225Z,1868
2016-11-29T11:13:24.210Z,1872
2016-11-29T11:14:24.190Z,1868
2016-11-29T11:15:24.171Z,1868
2016-11-29T11:16:24.156Z,1864
2016-11-29T11:17:24.138Z,1868
2016-11-29T11:18:24.124Z,1868
2016-11-29T11:19:24.098Z,1868
2016-11-29T11:20:24.087Z,1872
2016-11-29T11:21:24.068Z,1868
2016-11-29T11:22:24.045Z,1868
2016-11-29T11:23:24.029Z,1864
2016-11-29T11:24:24.017Z,1868
2016-11-29T11:25:23.999Z,1864
2016-11-29T11:26:23.985Z,1864
2016-11-29T11:27:23.962Z,1864
2016-11-29T11:28:23.944Z,1860
2016-11-29T11:29:23.931Z,1856
2016-11-29T11:30:23.913Z,1852
2016-11-29T11:31:23.917Z,1848
2016-11-29T11:32:23.873Z,1852
2016-11-29T11:33:23.854Z,1852
2016-11-29T11:34:23.839Z,1852
2016-11-29T11:35:23.831Z,1852
2016-11-29T11:36:23.802Z,1848
2016-11-29T11:37:24.104Z,1852
2016-11-29T11:38:23.773Z,1848
2016-11-29T11:39:23.757Z,1840
2016-11-29T11:40:23.737Z,1836
2016-11-29T11:41:23.722Z,1832
2016-11-29T11:42:23.701Z,1836
2016-11-29T11:43:23.691Z,1836
2016-11-29T11:44:23.680Z,1840
2016-11-29T11:45:23.661Z,1836
2016-11-29T11:46:23.633Z,1832
2016-11-29T11:47:23.633Z,1828
2016-11-29T11:48:23.596Z,1832
2016-11-29T11:49:23.578Z,1828
2016-11-29T11:50:23.561Z,1832
2016-11-29T11:51:23.540Z,1824
2016-11-29T11:52:23.528Z,1824
2016-11-29T11:53:23.508Z,1824
2016-11-29T11:54:23.507Z,1816
2016-11-29T11:55:23.492Z,1816
2016-11-29T11:56:23.456Z,1816
2016-11-29T11:57:23.437Z,1816
2016-11-29T11:58:23.420Z,1808
2016-11-29T11:59:23.404Z,1808
2016-11-29T12:00:23.385Z,1808
2016-11-29T12:01:23.374Z,1804
2016-11-29T12:02:23.353Z,1804
2016-11-29T12:03:23.334Z,1796
2016-11-29T12:04:23.315Z,1796
2016-11-29T12:05:23.297Z,1796
2016-11-29T12:06:23.280Z,1792
2016-11-29T12:07:23.265Z,1792
2016-11-29T12:08:23.256Z,1792
2016-11-29T12:09:23.225Z,1792
2016-11-29T12:10:23.214Z,1788
2016-11-29T12:11:23.197Z,1784
2016-11-29T12:12:23.175Z,1784
2016-11-29T12:13:23.157Z,1780
2016-11-29T12:14:23.142Z,1780
2016-11-29T12:15:23.127Z,1780
2016-11-29T12:16:23.106Z,1780
2016-11-29T12:17:23.089Z,1776
2016-11-29T12:18:23.086Z,1780
2016-11-29T12:19:23.055Z,1776
2016-11-29T12:20:23.036Z,1776
2016-11-29T12:21:23.021Z,1772
2016-11-29T12:22:23.004Z,1776
2016-11-29T12:23:22.987Z,1768
2016-11-29T12:24:23.303Z,1768
2016-11-29T12:25:22.949Z,1768
2016-11-29T12:26:22.936Z,1764
2016-11-29T12:27:22.914Z,1760
2016-11-29T12:28:22.902Z,1752
2016-11-29T12:29:22.880Z,1752
2016-11-29T12:30:22.862Z,1752
2016-11-29T12:31:23.166Z,1748
2016-11-29T12:32:22.833Z,1744
2016-11-29T12:33:22.813Z,1744
2016-11-29T12:34:23.108Z,1736
2016-11-29T12:35:22.831Z,1736
2016-11-29T12:36:22.763Z,1732
2016-11-29T12:37:22.741Z,1728
2016-11-29T12:38:22.723Z,1728
2016-11-29T12:39:22.705Z,1724
2016-11-29T12:40:22.689Z,1720
2016-11-29T12:41:22.721Z,1716
2016-11-29T12:42:22.651Z,1712
2016-11-29T12:43:22.638Z,1708
2016-11-29T12:44:22.941Z,1712
2016-11-29T12:45:22.605Z,1704
2016-11-29T12:46:22.586Z,1700
2016-11-29T12:47:22.570Z,1696
2016-11-29T12:48:22.566Z,1692
2016-11-29T12:49:22.532Z,1688
2016-11-29T12:50:22.520Z,1684
2016-11-29T12:51:22.493Z,1684
2016-11-29T12:52:22.479Z,1680
2016-11-29T12:53:22.468Z,1676
2016-11-29T12:54:22.444Z,1672
2016-11-29T12:55:22.428Z,1668
2016-11-29T12:56:22.410Z,1660
2016-11-29T12:57:22.396Z,1660
2016-11-29T12:58:22.375Z,1656
2016-11-29T12:59:22.358Z,1652
2016-11-29T13:00:22.339Z,1648
2016-11-29T13:01:22.323Z,1644
2016-11-29T13:02:22.619Z,1640
2016-11-29T13:03:22.339Z,1636
2016-11-29T13:04:22.274Z,1636
2016-11-29T13:05:22.266Z,1632
2016-11-29T13:06:22.240Z,1628
2016-11-29T13:07:22.222Z,1624
2016-11-29T13:08:22.202Z,1620
2016-11-29T13:09:22.189Z,1616
2016-11-29T13:10:22.166Z,1616
2016-11-29T13:11:22.150Z,1608
2016-11-29T13:12:22.135Z,1604
2016-11-29T13:13:22.118Z,1600
2016-11-29T13:14:22.106Z,1596
2016-11-29T13:15:22.080Z,1596
2016-11-29T13:16:22.064Z,1592
2016-11-29T13:17:22.074Z,1588
2016-11-29T13:18:22.030Z,1588
2016-11-29T13:19:22.011Z,1584
2016-11-29T13:20:21.994Z,1580
2016-11-29T13:21:21.976Z,1576
2016-11-29T13:22:21.957Z,1572
2016-11-29T13:23:21.945Z,1568
2016-11-29T13:24:21.929Z,1560
2016-11-29T13:25:21.909Z,1556
2016-11-29T13:26:21.896Z,1552
2016-11-29T13:27:21.872Z,1548
2016-11-29T13:28:21.860Z,1544
2016-11-29T13:29:21.911Z,1540
2016-11-29T13:30:21.820Z,1536
2016-11-29T13:31:21.838Z,1528
2016-11-29T13:32:21.789Z,1528
2016-11-29T13:33:21.768Z,1524
2016-11-29T13:34:22.067Z,1516
2016-11-29T13:35:21.732Z,1508
2016-11-29T13:36:21.719Z,1504
2016-11-29T13:37:21.699Z,1500
2016-11-29T13:38:21.681Z,1492
2016-11-29T13:39:21.668Z,1488
2016-11-29T13:40:21.651Z,1484
2016-11-29T13:41:21.636Z,1480
2016-11-29T13:42:21.653Z,1472
2016-11-29T13:43:21.600Z,1468
2016-11-29T13:44:21.588Z,1460
2016-11-29T13:45:21.875Z,1456
2016-11-29T13:46:21.871Z,1452
2016-11-29T13:47:21.533Z,1440
2016-11-29T13:48:21.510Z,1436
2016-11-29T13:49:21.495Z,1428
2016-11-29T13:50:21.475Z,1424
2016-11-29T13:51:21.463Z,1412
2016-11-29T13:52:21.442Z,1408
2016-11-29T13:53:21.438Z,1400
2016-11-29T13:54:21.404Z,1396
2016-11-29T13:55:21.396Z,1388
2016-11-29T13:56:21.385Z,1380
2016-11-29T13:57:21.349Z,1372
2016-11-29T13:58:21.334Z,1368
2016-11-29T13:59:21.318Z,1360